Time;durP1;ratioP1;P1;durP2;ratioP2;P2;SDS_P1;SDS_P2;PMS_P1;PMS_P2;Temp;Humidity;BMP_temperature;BMP_pressure;BME280_temperature;BME280_humidity;BME280_pressure;Samples;Min_cycle;Max_cycle;Signal;HPM_P1;HPM_P2
2023/12/28 00:01:27;;;;;;;6.50;3.77;;;;;;;;;;5050994;28;20209;-84
2023/12/28 00:03:57;;;;;;;5.97;3.70;;;;;;;;;;5050112;28;20230;-85
2023/12/28 00:06:27;;;;;;;6.80;3.83;;;;;;;;;;5060337;28;20222;-84
2023/12/28 00:09:00;;;;;;;6.63;3.80;;;;;;;;;;5062162;28;20641;-82
2023/12/28 00:11:29;;;;;;;4.00;3.27;;;;;;;;;;5059805;28;20200;-82
2023/12/28 00:13:59;;;;;;;8.70;4.83;;;;;;;;;;5059803;28;20203;-84
2023/12/28 00:16:27;;;;;;;10.37;6.23;;;;;;;;;;5060652;28;20199;-82
2023/12/28 00:18:55;;;;;;;6.57;3.80;;;;;;;;;;5058401;28;20237;-83
2023/12/28 00:21:24;;;;;;;13.73;5.27;;;;;;;;;;5050656;28;20207;-85
2023/12/28 00:23:53;;;;;;;7.87;4.23;;;;;;;;;;5050469;28;20210;-85
2023/12/28 00:26:23;;;;;;;6.47;4.83;;;;;;;;;;5048596;28;20195;-85
2023/12/28 00:28:50;;;;;;;8.67;5.90;;;;;;;;;;5051240;28;20229;-84
2023/12/28 00:31:21;;;;;;;11.77;6.57;;;;;;;;;;5055810;28;20191;-84
2023/12/28 00:33:50;;;;;;;12.47;6.03;;;;;;;;;;5055972;28;20227;-84
2023/12/28 00:36:17;;;;;;;12.63;5.73;;;;;;;;;;5050572;28;20203;-84
2023/12/28 00:38:45;;;;;;;8.17;4.27;;;;;;;;;;5050184;28;20292;-85
2023/12/28 00:41:15;;;;;;;13.00;5.23;;;;;;;;;;5051504;28;20238;-84
2023/12/28 00:43:43;;;;;;;11.80;5.80;;;;;;;;;;5049365;28;20583;-85
2023/12/28 00:46:12;;;;;;;9.80;6.20;;;;;;;;;;5050160;28;20192;-84
2023/12/28 00:48:40;;;;;;;15.83;6.90;;;;;;;;;;5048608;28;20230;-85
2023/12/28 00:51:09;;;;;;;12.43;6.13;;;;;;;;;;5048348;28;20637;-85
2023/12/28 00:53:39;;;;;;;9.73;5.30;;;;;;;;;;5049590;28;20207;-84
2023/12/28 00:56:07;;;;;;;12.07;5.13;;;;;;;;;;5064833;28;20214;-86
2023/12/28 00:58:37;;;;;;;6.07;4.50;;;;;;;;;;5056712;28;20231;-83
2023/12/28 01:01:05;;;;;;;3.77;3.30;;;;;;;;;;5048999;28;20195;-84
2023/12/28 01:03:34;;;;;;;16.70;5.90;;;;;;;;;;5048872;28;20677;-85
2023/12/28 01:06:05;;;;;;;7.97;3.53;;;;;;;;;;5050037;28;20227;-84
2023/12/28 01:08:34;;;;;;;7.90;3.83;;;;;;;;;;5048689;28;20294;-84
2023/12/28 01:11:04;;;;;;;7.43;4.17;;;;;;;;;;5048460;28;20215;-85
2023/12/28 01:13:33;;;;;;;7.33;4.70;;;;;;;;;;5048973;28;20283;-85
2023/12/28 01:16:00;;;;;;;5.70;3.53;;;;;;;;;;5049290;28;20195;-84
2023/12/28 01:18:30;;;;;;;9.33;5.03;;;;;;;;;;5050171;28;20633;-85
2023/12/28 01:20:59;;;;;;;5.87;4.47;;;;;;;;;;5053163;28;20200;-84
2023/12/28 01:23:30;;;;;;;9.17;4.87;;;;;;;;;;5052228;28;20282;-84
2023/12/28 01:25:59;;;;;;;8.10;5.83;;;;;;;;;;5049477;28;20653;-84
2023/12/28 01:28:28;;;;;;;6.57;3.67;;;;;;;;;;5049670;28;20241;-84
2023/12/28 01:30:58;;;;;;;11.90;6.33;;;;;;;;;;5049747;28;20218;-84
2023/12/28 01:33:26;;;;;;;7.33;5.13;;;;;;;;;;5051536;28;20289;-85
2023/12/28 01:35:58;;;;;;;5.23;4.03;;;;;;;;;;5053174;28;20290;-86
2023/12/28 01:38:29;;;;;;;4.07;3.70;;;;;;;;;;5052297;28;20226;-85
2023/12/28 01:40:59;;;;;;;6.97;4.50;;;;;;;;;;5052633;28;20188;-85
2023/12/28 01:43:27;;;;;;;10.43;4.17;;;;;;;;;;5052524;28;20279;-85
2023/12/28 01:45:58;;;;;;;5.47;3.83;;;;;;;;;;5052605;28;20238;-85
2023/12/28 01:48:26;;;;;;;10.73;3.93;;;;;;;;;;5051084;28;20200;-84
2023/12/28 01:50:59;;;;;;;4.73;3.53;;;;;;;;;;5051545;28;20605;-84
2023/12/28 01:53:29;;;;;;;5.10;4.53;;;;;;;;;;5051430;28;20683;-85
2023/12/28 01:55:56;;;;;;;5.67;5.07;;;;;;;;;;5051498;28;20747;-84
2023/12/28 01:58:24;;;;;;;6.40;4.27;;;;;;;;;;5051575;28;20249;-85
2023/12/28 02:00:55;;;;;;;6.37;4.83;;;;;;;;;;5052626;28;20215;-84
2023/12/28 02:03:23;;;;;;;7.37;4.10;;;;;;;;;;5056615;28;20321;-84
2023/12/28 02:05:51;;;;;;;11.60;5.03;;;;;;;;;;5063115;28;20295;-83
2023/12/28 02:08:20;;;;;;;7.43;3.93;;;;;;;;;;5058384;28;20223;-84
2023/12/28 02:10:51;;;;;;;11.00;3.70;;;;;;;;;;5051978;28;20204;-84
2023/12/28 02:13:19;;;;;;;6.07;4.43;;;;;;;;;;5052080;28;20187;-84
2023/12/28 02:15:49;;;;;;;3.07;2.80;;;;;;;;;;5051899;28;20199;-84
2023/12/28 02:18:21;;;;;;;5.03;3.23;;;;;;;;;;5050497;28;20223;-84
2023/12/28 02:20:49;;;;;;;3.73;2.87;;;;;;;;;;5052437;28;20818;-86
2023/12/28 02:23:18;;;;;;;6.63;3.17;;;;;;;;;;5050883;28;20199;-84
2023/12/28 02:25:48;;;;;;;3.87;3.10;;;;;;;;;;5051028;28;20199;-85
2023/12/28 02:28:17;;;;;;;6.40;3.47;;;;;;;;;;5067701;28;20374;-83
2023/12/28 02:30:48;;;;;;;4.43;3.43;;;;;;;;;;5070551;28;20187;-85
2023/12/28 02:33:19;;;;;;;5.43;2.77;;;;;;;;;;5069657;28;20249;-85
2023/12/28 02:35:49;;;;;;;10.27;3.67;;;;;;;;;;5072003;28;20190;-84
2023/12/28 02:38:22;;;;;;;5.53;3.00;;;;;;;;;;5070714;28;20295;-84
2023/12/28 02:40:51;;;;;;;5.50;3.90;;;;;;;;;;5070954;28;20285;-85
2023/12/28 02:43:18;;;;;;;5.30;3.40;;;;;;;;;;5071055;28;20218;-85
2023/12/28 02:45:47;;;;;;;7.67;4.80;;;;;;;;;;5070713;28;20198;-84
2023/12/28 02:48:15;;;;;;;11.50;5.30;;;;;;;;;;5071270;28;20282;-84
2023/12/28 02:50:44;;;;;;;6.43;4.27;;;;;;;;;;5070023;28;20710;-84
2023/12/28 02:53:13;;;;;;;8.00;4.73;;;;;;;;;;5070094;28;20190;-85
2023/12/28 02:55:42;;;;;;;9.23;4.37;;;;;;;;;;5071351;28;20281;-84
2023/12/28 02:58:13;;;;;;;10.43;4.47;;;;;;;;;;5070565;28;20314;-84
2023/12/28 03:00:45;;;;;;;8.90;5.03;;;;;;;;;;5070494;28;20195;-86
2023/12/28 03:03:15;;;;;;;7.03;4.70;;;;;;;;;;5070753;28;20209;-85
2023/12/28 03:05:45;;;;;;;8.60;4.97;;;;;;;;;;5070712;28;20674;-84
2023/12/28 03:08:15;;;;;;;9.37;5.13;;;;;;;;;;5070747;28;20730;-85
2023/12/28 03:10:46;;;;;;;10.37;4.63;;;;;;;;;;5070718;28;20213;-85
2023/12/28 03:13:17;;;;;;;7.73;4.43;;;;;;;;;;5069906;28;20187;-85
2023/12/28 03:15:45;;;;;;;10.73;5.00;;;;;;;;;;5069915;28;20679;-84
2023/12/28 03:18:13;;;;;;;7.83;4.10;;;;;;;;;;5069772;28;20260;-84
2023/12/28 03:20:40;;;;;;;9.50;3.90;;;;;;;;;;5070316;28;20658;-85
2023/12/28 03:23:10;;;;;;;6.77;3.57;;;;;;;;;;5071126;28;20640;-85
2023/12/28 03:25:40;;;;;;;8.60;4.10;;;;;;;;;;5071350;28;20248;-85
2023/12/28 03:28:13;;;;;;;7.47;4.23;;;;;;;;;;5070172;28;20229;-86
2023/12/28 03:30:45;;;;;;;11.00;4.10;;;;;;;;;;5070342;28;20511;-85
2023/12/28 03:33:16;;;;;;;6.63;4.53;;;;;;;;;;5068606;28;20721;-84
2023/12/28 03:35:47;;;;;;;8.43;5.03;;;;;;;;;;5070522;28;20690;-86
2023/12/28 03:38:17;;;;;;;12.03;6.50;;;;;;;;;;5069120;28;20219;-84
2023/12/28 03:40:49;;;;;;;10.93;5.07;;;;;;;;;;5072002;28;20711;-83
2023/12/28 03:43:18;;;;;;;7.13;6.17;;;;;;;;;;5070100;28;20667;-84
2023/12/28 03:45:46;;;;;;;9.93;6.30;;;;;;;;;;5068785;28;20201;-86
2023/12/28 03:48:15;;;;;;;18.63;7.77;;;;;;;;;;5069469;28;20679;-84
2023/12/28 03:50:44;;;;;;;14.63;6.00;;;;;;;;;;5069312;28;20207;-83
2023/12/28 03:53:14;;;;;;;17.50;7.27;;;;;;;;;;5068613;28;20237;-84
2023/12/28 03:55:44;;;;;;;15.63;6.50;;;;;;;;;;5069482;28;20273;-85
2023/12/28 03:58:14;;;;;;;14.00;7.73;;;;;;;;;;5069599;28;20253;-84
2023/12/28 04:00:45;;;;;;;14.33;6.97;;;;;;;;;;5068923;28;20195;-84
2023/12/28 04:03:15;;;;;;;10.90;8.07;;;;;;;;;;5068449;28;20732;-84
2023/12/28 04:05:44;;;;;;;17.97;7.43;;;;;;;;;;5069656;28;20233;-85
2023/12/28 04:08:13;;;;;;;10.83;6.97;;;;;;;;;;5068759;28;20195;-83
2023/12/28 04:10:43;;;;;;;9.37;6.33;;;;;;;;;;5069422;28;20195;-85
2023/12/28 04:13:13;;;;;;;16.23;8.67;;;;;;;;;;5070762;28;20233;-85
2023/12/28 04:15:43;;;;;;;17.90;7.63;;;;;;;;;;5072561;28;20195;-85
2023/12/28 04:18:13;;;;;;;14.60;8.63;;;;;;;;;;5073423;28;20211;-84
2023/12/28 04:20:44;;;;;;;10.57;6.87;;;;;;;;;;5072504;28;20214;-84
2023/12/28 04:23:15;;;;;;;21.77;8.50;;;;;;;;;;5068808;28;20191;-84
2023/12/28 04:25:47;;;;;;;9.27;6.83;;;;;;;;;;5069247;28;20198;-84
2023/12/28 04:28:17;;;;;;;11.90;8.40;;;;;;;;;;5068712;28;20209;-83
2023/12/28 04:30:48;;;;;;;12.27;6.43;;;;;;;;;;5067557;28;20199;-85
2023/12/28 04:33:18;;;;;;;13.20;8.10;;;;;;;;;;5069117;28;20219;-84
2023/12/28 04:35:46;;;;;;;14.40;7.00;;;;;;;;;;5069091;28;20711;-84
2023/12/28 04:38:15;;;;;;;11.03;6.33;;;;;;;;;;5068341;28;20303;-84
2023/12/28 04:40:45;;;;;;;11.23;5.40;;;;;;;;;;5069267;28;20696;-84
2023/12/28 04:43:15;;;;;;;13.80;5.23;;;;;;;;;;5069242;28;20260;-83
2023/12/28 04:45:43;;;;;;;11.33;5.60;;;;;;;;;;5068961;28;20292;-83
2023/12/28 04:48:12;;;;;;;11.97;5.13;;;;;;;;;;5067841;28;20236;-85
2023/12/28 04:50:42;;;;;;;9.27;6.33;;;;;;;;;;5068851;28;20218;-85
2023/12/28 04:53:13;;;;;;;18.53;6.67;;;;;;;;;;5068184;28;20206;-84
2023/12/28 04:55:41;;;;;;;13.07;7.13;;;;;;;;;;5068503;28;20635;-85
2023/12/28 04:58:10;;;;;;;15.27;5.90;;;;;;;;;;5068696;28;20203;-84
2023/12/28 05:00:40;;;;;;;10.30;6.70;;;;;;;;;;5069030;28;20199;-85
2023/12/28 05:03:10;;;;;;;9.20;5.67;;;;;;;;;;5068982;28;20683;-86
2023/12/28 05:05:39;;;;;;;10.07;6.83;;;;;;;;;;5068276;28;20237;-85
2023/12/28 05:08:09;;;;;;;10.50;6.40;;;;;;;;;;5071239;28;20217;-85
2023/12/28 05:10:39;;;;;;;10.97;6.50;;;;;;;;;;5072837;28;20301;-84
2023/12/28 05:13:09;;;;;;;10.17;4.67;;;;;;;;;;5072593;28;20214;-85
2023/12/28 05:15:39;;;;;;;10.57;5.83;;;;;;;;;;5072815;28;20226;-85
2023/12/28 05:18:08;;;;;;;10.20;6.70;;;;;;;;;;5073756;28;21041;-83
2023/12/28 05:20:37;;;;;;;10.90;6.63;;;;;;;;;;5091900;28;20263;-85
2023/12/28 05:23:06;;;;;;;9.33;5.23;;;;;;;;;;5092886;28;20203;-83
2023/12/28 05:25:36;;;;;;;15.23;6.53;;;;;;;;;;5093761;28;20195;-83
2023/12/28 05:28:08;;;;;;;12.53;7.37;;;;;;;;;;5093039;28;20269;-82
2023/12/28 05:30:37;;;;;;;19.70;7.07;;;;;;;;;;5078222;28;20207;-83
2023/12/28 05:33:08;;;;;;;21.03;8.00;;;;;;;;;;5075897;28;20230;-83
2023/12/28 05:35:37;;;;;;;10.10;6.40;;;;;;;;;;5075604;28;20203;-84
2023/12/28 05:38:06;;;;;;;9.63;6.40;;;;;;;;;;5073512;28;20256;-84
2023/12/28 05:40:35;;;;;;;11.03;6.50;;;;;;;;;;5073499;28;20230;-84
2023/12/28 05:43:08;;;;;;;15.47;7.53;;;;;;;;;;5074859;28;20187;-85
2023/12/28 05:45:43;;;;;;;10.30;6.70;;;;;;;;;;5073887;28;20320;-85
2023/12/28 05:48:19;;;;;;;12.90;8.20;;;;;;;;;;5074074;28;20202;-85
2023/12/28 05:50:50;;;;;;;20.53;8.77;;;;;;;;;;5075166;28;20269;-84
2023/12/28 05:53:22;;;;;;;17.77;9.73;;;;;;;;;;5076752;28;20215;-83
2023/12/28 05:55:54;;;;;;;31.77;9.17;;;;;;;;;;5087434;28;20260;-83
2023/12/28 05:58:25;;;;;;;17.57;9.13;;;;;;;;;;5082125;28;20195;-86
2023/12/28 06:00:54;;;;;;;18.27;8.30;;;;;;;;;;5077452;28;20949;-84
2023/12/28 06:03:27;;;;;;;18.60;8.47;;;;;;;;;;5080428;28;20195;-84
2023/12/28 06:06:00;;;;;;;18.33;8.40;;;;;;;;;;5077052;28;20242;-85
2023/12/28 06:08:32;;;;;;;14.87;9.73;;;;;;;;;;5072063;28;20198;-85
2023/12/28 06:11:03;;;;;;;16.37;8.77;;;;;;;;;;5072228;28;20248;-85
2023/12/28 06:13:32;;;;;;;14.70;7.73;;;;;;;;;;5073142;28;20191;-84
2023/12/28 06:16:04;;;;;;;13.07;7.43;;;;;;;;;;5074641;28;20277;-86
2023/12/28 06:18:34;;;;;;;9.80;7.00;;;;;;;;;;5073559;28;20210;-85
2023/12/28 06:21:06;;;;;;;18.47;8.90;;;;;;;;;;5072586;28;20292;-85
2023/12/28 06:23:34;;;;;;;10.40;7.23;;;;;;;;;;5081132;28;20221;-84
2023/12/28 06:26:07;;;;;;;13.67;7.90;;;;;;;;;;5089847;28;20195;-85
2023/12/28 06:28:34;;;;;;;15.23;7.23;;;;;;;;;;5073868;28;20667;-84
2023/12/28 06:31:05;;;;;;;10.27;6.73;;;;;;;;;;5071788;28;20233;-84
2023/12/28 06:33:35;;;;;;;14.13;7.40;;;;;;;;;;5071933;28;20223;-84
2023/12/28 06:36:08;;;;;;;16.37;7.27;;;;;;;;;;5070739;28;20214;-86
2023/12/28 06:38:38;;;;;;;12.30;8.03;;;;;;;;;;5071404;28;20529;-84
2023/12/28 06:41:12;;;;;;;12.33;7.87;;;;;;;;;;5070501;28;20759;-84
2023/12/28 06:43:43;;;;;;;10.73;7.53;;;;;;;;;;5070949;28;20215;-84
2023/12/28 06:46:13;;;;;;;11.33;7.30;;;;;;;;;;5071244;28;20197;-84
2023/12/28 06:48:45;;;;;;;13.40;7.47;;;;;;;;;;5073843;28;20547;-85
2023/12/28 06:51:17;;;;;;;10.57;7.73;;;;;;;;;;5071840;28;20277;-86
2023/12/28 06:53:48;;;;;;;18.27;7.30;;;;;;;;;;5074696;28;20198;-84
2023/12/28 06:56:29;;;;;;;15.77;8.33;;;;;;;;;;5072864;28;20202;-85
2023/12/28 06:59:00;;;;;;;18.37;8.47;;;;;;;;;;5073651;28;20198;-85
2023/12/28 07:01:34;;;;;;;23.17;8.87;;;;;;;;;;5072787;28;20194;-84
2023/12/28 07:04:05;;;;;;;15.37;8.87;;;;;;;;;;5073280;28;20208;-86
2023/12/28 07:06:33;;;;;;;16.57;8.80;;;;;;;;;;5071535;28;20753;-84
2023/12/28 07:09:06;;;;;;;22.93;11.17;;;;;;;;;;5072619;28;20183;-86
2023/12/28 07:11:38;;;;;;;15.90;10.63;;;;;;;;;;5070609;28;20202;-85
2023/12/28 07:14:08;;;;;;;20.60;9.90;;;;;;;;;;5069565;28;20206;-86
2023/12/28 07:16:39;;;;;;;19.70;11.73;;;;;;;;;;5070359;28;20198;-85
2023/12/28 07:19:05;;;;;;;19.47;11.20;;;;;;;;;;5072601;28;20218;-85
2023/12/28 07:21:34;;;;;;;21.03;11.33;;;;;;;;;;5072108;28;20313;-85
2023/12/28 07:24:03;;;;;;;23.43;11.77;;;;;;;;;;5071753;28;20282;-85
2023/12/28 07:26:31;;;;;;;27.43;11.80;;;;;;;;;;5071255;28;20297;-86
2023/12/28 07:29:00;;;;;;;19.50;11.20;;;;;;;;;;5069324;28;20253;-85
2023/12/28 07:31:31;;;;;;;21.83;12.40;;;;;;;;;;5070623;28;20195;-85
2023/12/28 07:34:08;;;;;;;31.27;12.67;;;;;;;;;;5073046;28;20223;-86
2023/12/28 07:36:40;;;;;;;20.60;12.33;;;;;;;;;;5071064;28;20232;-84
2023/12/28 07:39:09;;;;;;;16.67;11.83;;;;;;;;;;5073197;28;20195;-86
2023/12/28 07:41:38;;;;;;;23.00;13.40;;;;;;;;;;5071882;28;20757;-86
2023/12/28 07:44:11;;;;;;;23.17;12.63;;;;;;;;;;5071768;28;20203;-85
2023/12/28 07:46:40;;;;;;;24.07;13.37;;;;;;;;;;5072421;28;20206;-85
2023/12/28 07:49:11;;;;;;;25.13;13.33;;;;;;;;;;5068620;28;20195;-84
2023/12/28 07:51:42;;;;;;;23.47;13.07;;;;;;;;;;5068898;28;20835;-85
2023/12/28 07:54:12;;;;;;;23.03;13.10;;;;;;;;;;5068350;28;20199;-85
2023/12/28 07:56:41;;;;;;;20.67;12.70;;;;;;;;;;5069806;28;20209;-85
2023/12/28 07:59:10;;;;;;;26.03;12.47;;;;;;;;;;5068977;28;20207;-85
2023/12/28 08:01:40;;;;;;;26.27;13.17;;;;;;;;;;5068252;28;20671;-86
2023/12/28 08:04:12;;;;;;;19.37;12.53;;;;;;;;;;5067973;28;20262;-85
2023/12/28 08:06:40;;;;;;;19.63;12.73;;;;;;;;;;5069346;28;20244;-85
2023/12/28 08:09:10;;;;;;;27.50;14.53;;;;;;;;;;5069904;28;20204;-85
2023/12/28 08:11:41;;;;;;;23.87;14.50;;;;;;;;;;5071612;28;20645;-86
2023/12/28 08:14:11;;;;;;;23.83;13.80;;;;;;;;;;5075546;28;20624;-85
2023/12/28 08:16:44;;;;;;;27.63;14.37;;;;;;;;;;5077750;28;20221;-84
2023/12/28 08:19:15;;;;;;;30.00;13.57;;;;;;;;;;5070884;28;20191;-85
2023/12/28 08:21:45;;;;;;;23.67;13.63;;;;;;;;;;5069182;28;20194;-84
2023/12/28 08:24:17;;;;;;;21.70;13.13;;;;;;;;;;5081048;28;20249;-85
2023/12/28 08:26:45;;;;;;;29.53;14.07;;;;;;;;;;5080205;28;20204;-86
2023/12/28 08:29:14;;;;;;;22.80;13.10;;;;;;;;;;5074133;28;20277;-85
2023/12/28 08:31:45;;;;;;;21.13;13.03;;;;;;;;;;5069598;28;20204;-85
2023/12/28 08:34:19;;;;;;;25.50;13.40;;;;;;;;;;5068254;28;20218;-83
2023/12/28 08:36:50;;;;;;;19.93;11.87;;;;;;;;;;5069785;28;20284;-85
2023/12/28 08:39:18;;;;;;;24.53;12.20;;;;;;;;;;5068659;28;20213;-84
2023/12/28 08:41:46;;;;;;;16.73;11.43;;;;;;;;;;5072364;28;20202;-85
2023/12/28 08:44:16;;;;;;;17.03;9.53;;;;;;;;;;5074305;28;20566;-84
2023/12/28 08:46:46;;;;;;;20.20;12.50;;;;;;;;;;5073232;28;20235;-85
2023/12/28 08:49:17;;;;;;;21.40;13.00;;;;;;;;;;5072426;28;20198;-83
2023/12/28 08:51:46;;;;;;;19.93;11.93;;;;;;;;;;5073066;28;20630;-85
2023/12/28 08:54:15;;;;;;;22.47;14.13;;;;;;;;;;5073703;28;20203;-85
2023/12/28 08:56:45;;;;;;;25.27;13.00;;;;;;;;;;5072695;28;20626;-87
2023/12/28 08:59:15;;;;;;;21.73;13.70;;;;;;;;;;5072607;28;20195;-85
2023/12/28 09:01:46;;;;;;;24.90;12.80;;;;;;;;;;5073699;28;20215;-84
2023/12/28 09:04:29;;;;;;;26.73;13.37;;;;;;;;;;5072780;28;20225;-84
2023/12/28 09:07:02;;;;;;;19.67;12.20;;;;;;;;;;5080063;28;20703;-84
2023/12/28 09:09:47;;;;;;;18.67;10.63;;;;;;;;;;5083428;28;20231;-85
2023/12/28 09:12:19;;;;;;;25.73;12.70;;;;;;;;;;5086351;28;20207;-85
2023/12/28 09:14:52;;;;;;;24.03;12.83;;;;;;;;;;5094699;28;20194;-84
2023/12/28 09:17:24;;;;;;;19.23;11.87;;;;;;;;;;5090324;28;20209;-85
2023/12/28 09:20:27;;;;;;;22.97;10.83;;;;;;;;;;5083045;28;20594;-85
2023/12/28 09:23:10;;;;;;;22.83;12.30;;;;;;;;;;5084167;28;20220;-85
2023/12/28 09:28:47;;;;;;;14.57;10.57;;;;;;;;;;5059811;28;20201;-83
2023/12/28 09:31:17;;;;;;;19.43;11.70;;;;;;;;;;5075525;28;20201;-84
2023/12/28 09:33:50;;;;;;;12.90;9.43;;;;;;;;;;5082815;28;20259;-84
2023/12/28 09:36:20;;;;;;;19.13;11.23;;;;;;;;;;5084883;28;20268;-85
2023/12/28 09:38:51;;;;;;;16.87;10.07;;;;;;;;;;5086814;28;20202;-85
2023/12/28 09:58:02;;;;;;;18.73;10.90;;;;;;;;;;5316867;22;20247;-85
2023/12/28 10:00:35;;;;;;;17.43;11.10;;;;;;;;;;5024667;28;20311;-87
2023/12/28 10:03:08;;;;;;;19.67;11.07;;;;;;;;;;5027877;28;20200;-83
2023/12/28 10:08:17;;;;;;;15.00;9.97;;;;;;;;;;5042697;28;20199;-86
2023/12/28 10:13:34;;;;;;;16.43;10.23;;;;;;;;;;5034247;28;20237;-84
2023/12/28 10:16:18;;;;;;;22.67;10.93;;;;;;;;;;5047763;28;20589;-85
2023/12/28 10:18:46;;;;;;;19.53;11.30;;;;;;;;;;5049536;28;20277;-82
2023/12/28 10:21:18;;;;;;;25.97;12.57;;;;;;;;;;5050888;28;20227;-83
2023/12/28 10:23:47;;;;;;;19.47;12.27;;;;;;;;;;5050629;28;20224;-82
2023/12/28 10:26:18;;;;;;;16.77;10.67;;;;;;;;;;5049532;28;20226;-85
2023/12/28 10:28:50;;;;;;;21.13;9.90;;;;;;;;;;5043908;28;20218;-84
2023/12/28 10:31:22;;;;;;;18.20;9.53;;;;;;;;;;5037362;28;20198;-84
2023/12/28 10:34:05;;;;;;;15.83;9.63;;;;;;;;;;5036840;28;20224;-86
2023/12/28 10:36:36;;;;;;;15.63;10.23;;;;;;;;;;5035627;28;20398;-85
2023/12/28 10:39:05;;;;;;;19.50;10.63;;;;;;;;;;5035761;28;20314;-85
2023/12/28 10:41:39;;;;;;;15.27;10.37;;;;;;;;;;5036348;28;20227;-84
2023/12/28 10:44:08;;;;;;;20.17;12.17;;;;;;;;;;5036287;28;20659;-84
2023/12/28 10:46:40;;;;;;;28.00;13.00;;;;;;;;;;5035495;28;20215;-84
2023/12/28 10:49:11;;;;;;;25.83;13.17;;;;;;;;;;5031853;28;20225;-84
2023/12/28 10:51:43;;;;;;;21.00;12.33;;;;;;;;;;5031164;28;20651;-85
2023/12/28 10:54:16;;;;;;;22.13;13.00;;;;;;;;;;5031317;28;20192;-85
2023/12/28 10:56:48;;;;;;;24.80;12.60;;;;;;;;;;5031368;28;20429;-86
2023/12/28 10:59:18;;;;;;;27.77;14.33;;;;;;;;;;5031808;28;20278;-85
2023/12/28 11:01:53;;;;;;;29.60;16.27;;;;;;;;;;5030678;28;20758;-84
2023/12/28 11:04:25;;;;;;;35.20;18.97;;;;;;;;;;5029785;28;20200;-85
2023/12/28 11:06:56;;;;;;;29.60;16.40;;;;;;;;;;5031226;28;20291;-84
2023/12/28 11:09:25;;;;;;;32.00;15.13;;;;;;;;;;5030936;28;20564;-85
2023/12/28 11:11:58;;;;;;;28.20;15.60;;;;;;;;;;5030127;28;20783;-86
2023/12/28 11:14:29;;;;;;;27.63;15.70;;;;;;;;;;5031188;28;20600;-87
2023/12/28 11:17:01;;;;;;;31.30;17.93;;;;;;;;;;5030381;28;20208;-86
2023/12/28 11:19:31;;;;;;;31.07;16.30;;;;;;;;;;5031102;28;20196;-85
2023/12/28 11:22:02;;;;;;;30.60;16.50;;;;;;;;;;5030575;28;20287;-86
2023/12/28 11:24:33;;;;;;;33.50;15.47;;;;;;;;;;5033916;28;20191;-84
2023/12/28 11:27:04;;;;;;;31.83;16.53;;;;;;;;;;5046979;28;20197;-86
2023/12/28 11:29:34;;;;;;;33.17;16.27;;;;;;;;;;5045240;28;20414;-85
2023/12/28 11:32:05;;;;;;;33.73;16.67;;;;;;;;;;5030339;28;20221;-85
2023/12/28 11:34:36;;;;;;;30.77;17.43;;;;;;;;;;5030430;28;20613;-86
2023/12/28 11:37:09;;;;;;;29.27;15.73;;;;;;;;;;5029840;28;20194;-84
2023/12/28 11:39:44;;;;;;;34.60;17.10;;;;;;;;;;5029490;28;20599;-85
2023/12/28 11:42:14;;;;;;;34.80;16.13;;;;;;;;;;5029894;28;20216;-86
2023/12/28 11:44:43;;;;;;;31.37;15.10;;;;;;;;;;5029755;28;20251;-84
2023/12/28 11:47:22;;;;;;;31.60;17.30;;;;;;;;;;5029078;28;20605;-85
2023/12/28 11:49:51;;;;;;;32.20;15.63;;;;;;;;;;5029762;28;20195;-86
2023/12/28 11:52:28;;;;;;;32.70;15.40;;;;;;;;;;5029177;28;20676;-85
2023/12/28 11:55:01;;;;;;;26.83;16.23;;;;;;;;;;5038624;28;20196;-86
2023/12/28 11:57:33;;;;;;;30.90;15.50;;;;;;;;;;5042060;28;20200;-84
2023/12/28 12:00:04;;;;;;;31.43;15.90;;;;;;;;;;5030827;28;20667;-84
2023/12/28 12:02:38;;;;;;;37.63;15.27;;;;;;;;;;5029467;28;20234;-86
2023/12/28 12:05:10;;;;;;;30.53;15.40;;;;;;;;;;5030204;28;20202;-85
2023/12/28 12:07:40;;;;;;;28.50;15.27;;;;;;;;;;5030291;28;20204;-85
2023/12/28 12:10:12;;;;;;;29.80;16.07;;;;;;;;;;5029901;28;20276;-86
2023/12/28 12:12:42;;;;;;;26.00;14.70;;;;;;;;;;5030265;28;20648;-85
2023/12/28 12:15:15;;;;;;;24.50;13.23;;;;;;;;;;5030378;28;20207;-85
2023/12/28 12:17:49;;;;;;;26.37;14.47;;;;;;;;;;5033130;28;20262;-86
2023/12/28 12:20:18;;;;;;;29.40;13.53;;;;;;;;;;5039344;28;20206;-84
2023/12/28 12:22:48;;;;;;;28.20;15.03;;;;;;;;;;5050934;28;20235;-86
2023/12/28 12:25:19;;;;;;;29.53;15.33;;;;;;;;;;5043245;28;20234;-86
2023/12/28 12:27:51;;;;;;;27.40;14.73;;;;;;;;;;5029566;28;20751;-86
2023/12/28 12:30:20;;;;;;;29.67;15.47;;;;;;;;;;5028786;28;20681;-87
2023/12/28 12:32:51;;;;;;;25.73;14.93;;;;;;;;;;5029992;28;20231;-86
2023/12/28 12:35:22;;;;;;;34.43;15.87;;;;;;;;;;5029440;28;20200;-86
2023/12/28 12:37:54;;;;;;;33.07;15.80;;;;;;;;;;5030354;28;20224;-87
2023/12/28 12:40:39;;;;;;;39.97;15.70;;;;;;;;;;5036408;28;20709;-86
2023/12/28 12:43:09;;;;;;;27.20;14.33;;;;;;;;;;5043674;28;20318;-86
2023/12/28 12:45:56;;;;;;;36.03;16.13;;;;;;;;;;5043040;28;20207;-87
2023/12/28 12:56:47;;;;;;;25.63;13.77;;;;;;;;;;5017446;28;20253;-87
2023/12/28 12:59:19;;;;;;;23.13;13.60;;;;;;;;;;5027211;28;20203;-86
2023/12/28 13:08:03;;;;;;;24.20;13.60;;;;;;;;;;5040194;28;20193;-86
2023/12/28 13:19:53;;;;;;;25.17;13.60;;;;;;;;;;5036285;28;20265;-85
2023/12/28 13:28:38;;;;;;;19.40;11.93;;;;;;;;;;5023477;28;20310;-85
2023/12/28 13:34:08;;;;;;;30.30;13.43;;;;;;;;;;5046690;22;20241;-86
2023/12/28 13:36:44;;;;;;;29.40;13.27;;;;;;;;;;5045853;28;20221;-86
2023/12/28 13:39:19;;;;;;;22.60;12.93;;;;;;;;;;5046723;28;20199;-87
2023/12/28 13:41:51;;;;;;;26.83;12.50;;;;;;;;;;5036715;28;20227;-86
2023/12/28 13:44:23;;;;;;;20.87;13.53;;;;;;;;;;5036235;28;20220;-87
2023/12/28 13:46:55;;;;;;;32.50;13.93;;;;;;;;;;5036656;28;21100;-87
2023/12/28 13:49:26;;;;;;;30.57;12.93;;;;;;;;;;5035794;28;20242;-86
2023/12/28 13:52:02;;;;;;;23.13;12.13;;;;;;;;;;5036077;28;20212;-85
2023/12/28 13:54:34;;;;;;;17.20;8.67;;;;;;;;;;5037636;28;20204;-86
2023/12/28 13:57:02;;;;;;;25.80;9.70;;;;;;;;;;5026341;28;20204;-85
2023/12/28 13:59:31;;;;;;;16.67;9.13;;;;;;;;;;5035275;28;20751;-87
2023/12/28 14:02:06;;;;;;;23.50;9.37;;;;;;;;;;5035931;28;20223;-86
2023/12/28 14:04:39;;;;;;;20.93;10.07;;;;;;;;;;5035117;28;20715;-85
2023/12/28 14:07:09;;;;;;;21.73;10.30;;;;;;;;;;5034730;28;20208;-85
2023/12/28 14:09:38;;;;;;;20.47;10.27;;;;;;;;;;5036450;28;20199;-85
2023/12/28 14:12:07;;;;;;;39.53;18.30;;;;;;;;;;5035199;28;20196;-85
2023/12/28 14:14:35;;;;;;;26.27;11.70;;;;;;;;;;5034267;28;20196;-85
2023/12/28 14:17:05;;;;;;;15.93;9.43;;;;;;;;;;5034401;28;20203;-86
2023/12/28 14:19:35;;;;;;;27.30;12.13;;;;;;;;;;5038441;28;20207;-85
2023/12/28 14:22:05;;;;;;;12.90;7.97;;;;;;;;;;5036796;28;20262;-85
2023/12/28 14:24:37;;;;;;;20.80;9.87;;;;;;;;;;5037720;28;20375;-84
2023/12/28 14:27:15;;;;;;;18.00;8.30;;;;;;;;;;5035213;28;20208;-87
2023/12/28 14:29:45;;;;;;;23.40;8.63;;;;;;;;;;5035363;28;20285;-86
2023/12/28 14:32:28;;;;;;;12.87;7.90;;;;;;;;;;5036046;28;20266;-86
2023/12/28 14:34:57;;;;;;;37.43;9.77;;;;;;;;;;5035738;28;20212;-85
2023/12/28 14:37:26;;;;;;;15.67;6.07;;;;;;;;;;5035332;28;20196;-85
2023/12/28 14:40:06;;;;;;;10.77;5.47;;;;;;;;;;5035919;28;20228;-84
2023/12/28 14:42:37;;;;;;;13.87;6.50;;;;;;;;;;5034877;28;20220;-84
2023/12/28 14:45:05;;;;;;;10.90;6.57;;;;;;;;;;5033247;28;20198;-85
2023/12/28 14:47:39;;;;;;;10.80;6.87;;;;;;;;;;5035465;28;20244;-84
2023/12/28 14:50:10;;;;;;;16.73;8.40;;;;;;;;;;5034504;28;20204;-83
2023/12/28 14:52:42;;;;;;;20.20;10.33;;;;;;;;;;5033295;28;20204;-85
2023/12/28 14:55:15;;;;;;;12.90;7.57;;;;;;;;;;5035216;28;20204;-85
2023/12/28 14:57:44;;;;;;;11.80;7.37;;;;;;;;;;5034554;28;20203;-84
2023/12/28 15:00:13;;;;;;;15.30;7.33;;;;;;;;;;5033392;28;20212;-87
2023/12/28 15:02:44;;;;;;;20.60;8.07;;;;;;;;;;5033093;28;20236;-88
2023/12/28 15:05:14;;;;;;;37.83;16.73;;;;;;;;;;5037252;28;20227;-84
2023/12/28 15:07:48;;;;;;;25.70;14.00;;;;;;;;;;5045072;28;20669;-84
2023/12/28 15:10:24;;;;;;;25.77;14.30;;;;;;;;;;5019461;28;20428;-85
2023/12/28 15:12:54;;;;;;;10.70;6.77;;;;;;;;;;5047782;28;20206;-85
2023/12/28 15:15:23;;;;;;;7.47;6.03;;;;;;;;;;5047501;28;20200;-85
2023/12/28 15:18:05;;;;;;;7.90;6.47;;;;;;;;;;5045440;28;20231;-85
2023/12/28 15:20:35;;;;;;;7.57;5.07;;;;;;;;;;5045873;28;20239;-84
2023/12/28 15:23:04;;;;;;;6.93;5.47;;;;;;;;;;5036276;28;20228;-83
2023/12/28 15:25:32;;;;;;;11.87;6.20;;;;;;;;;;5044037;28;20575;-85
2023/12/28 15:28:01;;;;;;;19.80;9.63;;;;;;;;;;5047344;28;20176;-83
2023/12/28 15:30:30;;;;;;;8.67;5.60;;;;;;;;;;5048698;28;20199;-84
2023/12/28 15:33:02;;;;;;;6.17;5.30;;;;;;;;;;5047746;28;20582;-83
2023/12/28 15:35:38;;;;;;;12.23;6.47;;;;;;;;;;5045315;28;20247;-83
2023/12/28 15:38:08;;;;;;;22.80;9.50;;;;;;;;;;5038413;28;20204;-84
2023/12/28 15:40:37;;;;;;;8.87;6.10;;;;;;;;;;5032822;28;20693;-85
2023/12/28 15:43:31;;;;;;;6.37;4.93;;;;;;;;;;5034649;28;20219;-83
2023/12/28 15:46:02;;;;;;;9.33;4.93;;;;;;;;;;5029815;28;20204;-85
2023/12/28 15:48:32;;;;;;;21.57;5.50;;;;;;;;;;5023032;28;20254;-84